Time,TemperatureF,DewpointF,PressureIn,WindDirection,WindDirectionDegrees,WindSpeedMPH,WindSpeedGustMPH,Humidity,HourlyPrecipIn,Conditions,Clouds,dailyrainin,SoftwareType,DateUTC
2013-08-20 00:01:00,56.7,55.9,29.89,NNW,328,0.0,0.0,97,0.00,,---,0.00,VWS V13.01,2013-08-20 04:01:00,
2013-08-20 00:02:00,56.7,55.9,29.90,NNW,328,0.0,0.0,97,0.00,,---,0.00,VWS V13.01,2013-08-20 04:02:00,
2013-08-20 00:03:00,56.8,56.0,29.89,NNW,328,0.0,0.0,97,0.00,,---,0.00,VWS V13.01,2013-08-20 04:03:00,
2013-08-20 00:08:00,56.8,56.0,29.90,NNW,328,0.0,0.0,97,0.00,,---,0.00,VWS V13.01,2013-08-20 04:08:00,
2013-08-20 00:13:00,56.8,56.0,29.90,NNW,328,0.0,0.0,97,0.00,,---,0.00,VWS V13.01,2013-08-20 04:13:00,
2013-08-20 00:18:00,56.4,55.6,29.91,NNW,327,0.0,1.0,97,0.00,,---,0.00,VWS V13.01,2013-08-20 04:18:00,
2013-08-20 00:23:00,56.0,55.2,29.91,NNW,328,0.0,1.0,97,0.00,,---,0.00,VWS V13.01,2013-08-20 04:23:00,
2013-08-20 00:29:00,56.1,55.3,29.91,NNW,328,0.0,1.0,97,0.00,,---,0.00,VWS V13.01,2013-08-20 04:29:00,
2013-08-20 00:34:00,56.3,55.5,29.91,NNW,328,0.0,0.0,97,0.00,,---,0.00,VWS V13.01,2013-08-20 04:34:00,
2013-08-20 00:39:00,56.2,55.4,29.91,NNW,327,0.0,0.0,97,0.00,,---,0.00,VWS V13.01,2013-08-20 04:39:00,
2013-08-20 00:44:00,56.0,55.2,29.91,NNW,327,0.0,0.0,97,0.00,,---,0.00,VWS V13.01,2013-08-20 04:44:00,
2013-08-20 00:49:00,56.2,55.4,29.91,NNW,327,0.0,1.0,97,0.00,,---,0.00,VWS V13.01,2013-08-20 04:49:00,
2013-08-20 00:54:00,56.4,55.6,29.91,NNW,328,0.0,1.0,97,0.00,,---,0.00,VWS V13.01,2013-08-20 04:54:00,
2013-08-20 00:59:00,56.4,55.6,29.91,NNW,328,0.0,1.0,97,0.00,,---,0.00,VWS V13.01,2013-08-20 04:59:00,
2013-08-20 01:04:00,56.0,55.2,29.91,NNW,327,0.0,0.0,97,0.00,,---,0.00,VWS V13.01,2013-08-20 05:04:00,
2013-08-20 01:09:00,55.5,54.7,29.91,NNW,328,0.0,0.0,97,0.00,,---,0.00,VWS V13.01,2013-08-20 05:09:00,
2013-08-20 01:14:00,54.8,54.0,29.91,NNW,328,0.0,1.0,97,0.00,,---,0.00,VWS V13.01,2013-08-20 05:14:00,
2013-08-20 01:19:00,54.1,53.3,29.91,NNW,328,0.0,1.0,97,0.00,,---,0.00,VWS V13.01,2013-08-20 05:19:00,
2013-08-20 01:24:00,54.2,53.4,29.91,NNW,327,0.0,1.0,97,0.00,,---,0.00,VWS V13.01,2013-08-20 05:24:00,
2013-08-20 01:29:00,54.4,53.6,29.91,NNW,328,0.0,1.0,97,0.00,,---,0.00,VWS V13.01,2013-08-20 05:29:00,
2013-08-20 01:34:00,54.3,53.5,29.91,NNW,327,0.0,0.0,97,0.00,,---,0.00,VWS V13.01,2013-08-20 05:34:00,
2013-08-20 01:39:00,54.4,53.6,29.91,NNW,328,0.0,0.0,97,0.00,,---,0.00,VWS V13.01,2013-08-20 05:39:00,
2013-08-20 01:44:00,54.5,53.7,29.91,NNW,328,0.0,0.0,97,0.00,,---,0.00,VWS V13.01,2013-08-20 05:44:00,
2013-08-20 01:49:00,54.6,54.0,29.91,NNW,328,0.0,0.0,98,0.00,,---,0.00,VWS V13.01,2013-08-20 05:49:00,
2013-08-20 01:54:00,54.7,54.2,29.91,NNW,328,0.0,0.0,98,0.00,,---,0.00,VWS V13.01,2013-08-20 05:54:00,
2013-08-20 01:59:00,54.6,54.0,29.91,NNW,328,0.0,0.0,98,0.00,,---,0.00,VWS V13.01,2013-08-20 05:59:00,
2013-08-20 02:04:00,54.7,54.2,29.91,NNW,327,0.0,0.0,98,0.00,,---,0.00,VWS V13.01,2013-08-20 06:04:00,
2013-08-20 02:09:00,54.8,54.2,29.91,NNW,328,0.0,0.0,98,0.00,,---,0.00,VWS V13.01,2013-08-20 06:09:00,
2013-08-20 02:14:00,55.0,54.5,29.91,NNW,327,0.0,0.0,98,0.00,,---,0.00,VWS V13.01,2013-08-20 06:14:00,
2013-08-20 02:19:00,54.8,54.2,29.91,NNW,328,0.0,0.0,98,0.00,,---,0.00,VWS V13.01,2013-08-20 06:19:00,
2013-08-20 02:24:00,54.5,54.0,29.91,NNW,327,0.0,0.0,98,0.00,,---,0.00,VWS V13.01,2013-08-20 06:24:00,
2013-08-20 02:29:00,54.3,53.8,29.91,NNW,328,0.0,0.0,98,0.00,,---,0.00,VWS V13.01,2013-08-20 06:29:00,
2013-08-20 02:34:00,54.2,53.7,29.91,NNW,328,0.0,0.0,98,0.00,,---,0.00,VWS V13.01,2013-08-20 06:34:00,
2013-08-20 02:39:00,54.3,53.8,29.91,NNW,328,0.0,0.0,98,0.00,,---,0.00,VWS V13.01,2013-08-20 06:39:00,
2013-08-20 02:45:00,54.5,54.0,29.91,NNW,328,0.0,0.0,98,0.00,,---,0.00,VWS V13.01,2013-08-20 06:45:00,
2013-08-20 02:50:00,54.6,54.0,29.91,NNW,328,0.0,0.0,98,0.00,,---,0.00,VWS V13.01,2013-08-20 06:50:00,
2013-08-20 02:55:00,54.4,53.8,29.91,NNW,328,0.0,0.0,98,0.00,,---,0.00,VWS V13.01,2013-08-20 06:55:00,
2013-08-20 03:00:00,54.3,53.8,29.91,NNW,327,0.0,0.0,98,0.00,,---,0.00,VWS V13.01,2013-08-20 07:00:00,
2013-08-20 03:05:00,54.4,53.8,29.91,NNW,328,0.0,0.0,98,0.00,,---,0.00,VWS V13.01,2013-08-20 07:05:00,
2013-08-20 03:10:00,54.6,54.0,29.91,NNW,328,0.0,0.0,98,0.00,,---,0.00,VWS V13.01,2013-08-20 07:10:00,
2013-08-20 03:15:00,54.7,54.2,29.91,NNW,328,0.0,0.0,98,0.00,,---,0.00,VWS V13.01,2013-08-20 07:15:00,
2013-08-20 03:20:00,54.7,54.2,29.91,NNW,327,0.0,0.0,98,0.00,,---,0.00,VWS V13.01,2013-08-20 07:20:00,
2013-08-20 03:25:00,54.7,54.2,29.91,NNW,328,0.0,1.0,98,0.00,,---,0.00,VWS V13.01,2013-08-20 07:25:00,
2013-08-20 03:30:00,54.7,54.2,29.91,NNW,327,0.0,0.0,98,0.00,,---,0.00,VWS V13.01,2013-08-20 07:30:00,
2013-08-20 03:35:00,54.6,54.0,29.91,NNW,328,0.0,0.0,98,0.00,,---,0.00,VWS V13.01,2013-08-20 07:35:00,
2013-08-20 03:40:00,54.7,54.2,29.91,NNW,327,0.0,0.0,98,0.00,,---,0.00,VWS V13.01,2013-08-20 07:40:00,
2013-08-20 03:45:00,54.8,54.2,29.91,NNW,328,0.0,0.0,98,0.00,,---,0.00,VWS V13.01,2013-08-20 07:45:00,
2013-08-20 03:50:00,54.8,54.2,29.91,NNW,327,0.0,0.0,98,0.00,,---,0.00,VWS V13.01,2013-08-20 07:50:00,
2013-08-20 03:55:00,54.7,54.2,29.91,NNW,328,0.0,0.0,98,0.00,,---,0.00,VWS V13.01,2013-08-20 07:55:00,
2013-08-20 04:00:00,54.7,54.2,29.92,NNW,327,0.0,0.0,98,0.00,,---,0.00,VWS V13.01,2013-08-20 08:00:00,
2013-08-20 04:05:00,54.7,54.2,29.92,NNW,328,0.0,0.0,98,0.00,,---,0.00,VWS V13.01,2013-08-20 08:05:00,
2013-08-20 04:10:00,54.6,54.0,29.92,NNW,328,0.0,0.0,98,0.00,,---,0.00,VWS V13.01,2013-08-20 08:10:00,
2013-08-20 04:15:00,54.6,54.0,29.92,NNW,328,0.0,0.0,98,0.00,,---,0.00,VWS V13.01,2013-08-20 08:15:00,
2013-08-20 04:20:00,54.4,53.8,29.92,NNW,327,0.0,0.0,98,0.00,,---,0.00,VWS V13.01,2013-08-20 08:20:00,
2013-08-20 04:25:00,54.5,54.0,29.93,NNW,327,0.0,0.0,98,0.00,,---,0.00,VWS V13.01,2013-08-20 08:25:00,
2013-08-20 04:30:00,54.5,54.0,29.93,NNW,327,0.0,0.0,98,0.00,,---,0.00,VWS V13.01,2013-08-20 08:30:00,
2013-08-20 04:35:00,54.4,53.8,29.93,NNW,328,0.0,0.0,98,0.00,,---,0.00,VWS V13.01,2013-08-20 08:35:00,
2013-08-20 04:40:00,54.4,53.8,29.93,NNW,327,0.0,0.0,98,0.00,,---,0.00,VWS V13.01,2013-08-20 08:40:00,
2013-08-20 04:45:00,54.3,53.8,29.94,NNW,328,0.0,0.0,98,0.00,,---,0.00,VWS V13.01,2013-08-20 08:45:00,
2013-08-20 04:50:00,54.2,53.7,29.94,NNW,327,0.0,0.0,98,0.00,,---,0.00,VWS V13.01,2013-08-20 08:50:00,
2013-08-20 04:55:00,54.0,53.5,29.94,NNW,328,0.0,1.0,98,0.00,,---,0.00,VWS V13.01,2013-08-20 08:55:00,
2013-08-20 05:00:00,53.6,53.0,29.94,NNW,328,0.0,0.0,98,0.00,,---,0.00,VWS V13.01,2013-08-20 09:00:00,
2013-08-20 05:06:00,53.5,53.0,29.94,NNW,327,0.0,1.0,98,0.00,,---,0.00,VWS V13.01,2013-08-20 09:06:00,
2013-08-20 05:11:00,53.5,53.0,29.94,NNW,328,0.0,1.0,98,0.00,,---,0.00,VWS V13.01,2013-08-20 09:11:00,
2013-08-20 05:16:00,53.5,53.0,29.94,NNW,328,0.0,1.0,98,0.00,,---,0.00,VWS V13.01,2013-08-20 09:16:00,
2013-08-20 05:21:00,53.5,53.0,29.94,NNW,328,0.0,1.0,98,0.00,,---,0.00,VWS V13.01,2013-08-20 09:21:00,
2013-08-20 05:26:00,53.5,53.0,29.95,NNW,327,0.0,1.0,98,0.00,,---,0.00,VWS V13.01,2013-08-20 09:26:00,
2013-08-20 05:31:00,53.6,53.0,29.95,NNW,328,0.0,0.0,98,0.00,,---,0.00,VWS V13.01,2013-08-20 09:31:00,
2013-08-20 05:36:00,53.3,52.8,29.95,NNW,327,0.0,0.0,98,0.00,,---,0.00,VWS V13.01,2013-08-20 09:36:00,
2013-08-20 05:41:00,53.1,52.5,29.95,NNW,327,0.0,0.0,98,0.00,,---,0.00,VWS V13.01,2013-08-20 09:41:00,
2013-08-20 05:46:00,53.1,52.5,29.95,NNW,328,0.0,0.0,98,0.00,,---,0.00,VWS V13.01,2013-08-20 09:46:00,
2013-08-20 05:51:00,53.2,52.9,29.95,NNW,328,0.0,0.0,99,0.00,,---,0.00,VWS V13.01,2013-08-20 09:51:00,
2013-08-20 05:56:00,53.3,53.0,29.95,NNW,327,0.0,0.0,99,0.00,,---,0.00,VWS V13.01,2013-08-20 09:56:00,
2013-08-20 06:01:00,53.4,52.8,29.96,NNW,328,0.0,0.0,98,0.00,,---,0.00,VWS V13.01,2013-08-20 10:01:00,
2013-08-20 06:06:00,53.4,52.8,29.95,NNW,327,0.0,1.0,98,0.00,,---,0.00,VWS V13.01,2013-08-20 10:06:00,
2013-08-20 06:11:00,53.4,53.1,29.96,NNW,328,0.0,1.0,99,0.00,,---,0.00,VWS V13.01,2013-08-20 10:11:00,
2013-08-20 06:16:00,53.4,53.1,29.96,NNW,327,0.0,1.0,99,0.00,,---,0.00,VWS V13.01,2013-08-20 10:16:00,
2013-08-20 06:21:00,53.4,53.1,29.96,NNW,328,0.0,1.0,99,0.00,,---,0.00,VWS V13.01,2013-08-20 10:21:00,
2013-08-20 06:26:00,53.4,53.1,29.96,NNW,327,0.0,1.0,99,0.00,,---,0.00,VWS V13.01,2013-08-20 10:26:00,
2013-08-20 06:31:00,53.4,53.1,29.96,NNW,328,0.0,0.0,99,0.00,,---,0.00,VWS V13.01,2013-08-20 10:31:00,
2013-08-20 06:36:00,53.4,53.1,29.97,NNW,327,0.0,0.0,99,0.00,,---,0.00,VWS V13.01,2013-08-20 10:36:00,
2013-08-20 06:41:00,53.4,53.1,29.97,NNW,328,0.0,0.0,99,0.00,,---,0.00,VWS V13.01,2013-08-20 10:41:00,
2013-08-20 06:46:00,53.3,53.0,29.97,NNW,328,0.0,0.0,99,0.00,,---,0.00,VWS V13.01,2013-08-20 10:46:00,
2013-08-20 06:51:00,53.4,53.1,29.97,NNW,328,0.0,0.0,99,0.01,,---,0.01,VWS V13.01,2013-08-20 10:51:00,
2013-08-20 06:56:00,53.4,53.1,29.97,NNW,327,0.0,0.0,99,0.01,,---,0.01,VWS V13.01,2013-08-20 10:56:00,
2013-08-20 07:01:00,53.3,53.0,29.98,NNW,328,0.0,0.0,99,0.01,,---,0.01,VWS V13.01,2013-08-20 11:01:00,
2013-08-20 07:06:00,53.2,52.9,29.98,NNW,328,0.0,1.0,99,0.01,,---,0.01,VWS V13.01,2013-08-20 11:06:00,
2013-08-20 07:12:00,53.2,52.9,29.98,NNW,328,0.0,1.0,99,0.01,,---,0.01,VWS V13.01,2013-08-20 11:12:00,
2013-08-20 07:17:00,53.2,52.9,29.98,NNW,328,0.0,1.0,99,0.01,,---,0.01,VWS V13.01,2013-08-20 11:17:00,
2013-08-20 07:22:00,53.2,52.9,29.98,NNW,327,0.0,1.0,99,0.01,,---,0.01,VWS V13.01,2013-08-20 11:22:00,
2013-08-20 07:27:00,53.2,52.9,29.98,NNW,328,0.0,1.0,99,0.01,,---,0.01,VWS V13.01,2013-08-20 11:27:00,
2013-08-20 07:32:00,53.3,53.0,29.99,NNW,328,0.0,0.0,99,0.01,,---,0.01,VWS V13.01,2013-08-20 11:32:00,
2013-08-20 07:37:00,53.4,53.1,29.99,NNW,328,0.0,0.0,99,0.01,,---,0.01,VWS V13.01,2013-08-20 11:37:00,
2013-08-20 07:42:00,53.3,53.0,29.99,NNW,328,0.0,0.0,99,0.01,,---,0.01,VWS V13.01,2013-08-20 11:42:00,
2013-08-20 07:47:00,53.5,53.2,29.99,NNW,328,0.0,1.0,99,0.01,,---,0.01,VWS V13.01,2013-08-20 11:47:00,
2013-08-20 07:52:00,53.5,53.2,30.00,NNW,328,0.0,1.0,99,0.01,,---,0.01,VWS V13.01,2013-08-20 11:52:00,
2013-08-20 07:57:00,53.5,53.2,30.00,NNW,328,0.0,1.0,99,0.01,,---,0.01,VWS V13.01,2013-08-20 11:57:00,
2013-08-20 08:02:00,53.6,53.3,30.00,NNW,328,0.0,0.0,99,0.00,,---,0.01,VWS V13.01,2013-08-20 12:02:00,
2013-08-20 08:07:00,53.7,53.4,29.99,NNW,327,0.0,0.0,99,0.00,,---,0.01,VWS V13.01,2013-08-20 12:07:00,
2013-08-20 08:12:00,54.0,53.7,30.00,NNW,328,0.0,0.0,99,0.00,,---,0.01,VWS V13.01,2013-08-20 12:12:00,
2013-08-20 08:17:00,54.2,53.9,30.00,NNW,327,0.0,1.0,99,0.00,,---,0.01,VWS V13.01,2013-08-20 12:17:00,
2013-08-20 08:22:00,54.2,53.9,29.99,NNW,328,0.0,1.0,99,0.00,,---,0.01,VWS V13.01,2013-08-20 12:22:00,
2013-08-20 08:27:00,54.3,54.0,30.00,NNW,327,0.0,1.0,99,0.00,,---,0.01,VWS V13.01,2013-08-20 12:27:00,
2013-08-20 08:32:00,54.4,54.1,30.00,NNW,327,0.0,0.0,99,0.00,,---,0.01,VWS V13.01,2013-08-20 12:32:00,
2013-08-20 08:37:00,54.5,54.2,30.00,NNW,328,0.0,1.0,99,0.00,,---,0.01,VWS V13.01,2013-08-20 12:37:00,
2013-08-20 08:42:00,54.7,54.4,30.00,NNW,328,0.0,1.0,99,0.00,,---,0.01,VWS V13.01,2013-08-20 12:42:00,
2013-08-20 08:47:00,55.0,54.7,30.00,NNW,328,0.0,1.0,99,0.00,,---,0.01,VWS V13.01,2013-08-20 12:47:00,
2013-08-20 08:52:00,55.3,55.0,30.00,NNW,327,0.0,1.0,99,0.00,,---,0.01,VWS V13.01,2013-08-20 12:52:00,
2013-08-20 08:57:00,55.5,55.2,30.00,NNW,327,0.0,1.0,99,0.00,,---,0.01,VWS V13.01,2013-08-20 12:57:00,
2013-08-20 09:02:00,55.9,55.6,30.01,NNW,328,0.0,0.0,99,0.00,,---,0.01,VWS V13.01,2013-08-20 13:02:00,
2013-08-20 09:08:00,56.1,55.8,30.00,NNW,327,0.0,0.0,99,0.00,,---,0.01,VWS V13.01,2013-08-20 13:08:00,
2013-08-20 09:13:00,56.3,56.0,30.01,NNW,327,0.0,0.0,99,0.00,,---,0.01,VWS V13.01,2013-08-20 13:13:00,
2013-08-20 09:18:00,56.5,56.2,30.01,NNW,328,0.0,0.0,99,0.00,,---,0.01,VWS V13.01,2013-08-20 13:18:00,
2013-08-20 09:23:00,56.7,56.4,30.01,NNW,328,0.0,0.0,99,0.00,,---,0.01,VWS V13.01,2013-08-20 13:23:00,
2013-08-20 09:28:00,57.0,56.7,30.01,NNW,328,0.0,0.0,99,0.00,,---,0.01,VWS V13.01,2013-08-20 13:28:00,
2013-08-20 09:33:00,57.5,57.2,30.01,NNW,328,0.0,0.0,99,0.00,,---,0.01,VWS V13.01,2013-08-20 13:33:00,
2013-08-20 09:38:00,57.8,57.5,30.01,NNW,327,0.0,0.0,99,0.00,,---,0.01,VWS V13.01,2013-08-20 13:38:00,
2013-08-20 09:43:00,58.6,58.3,30.01,NNW,328,0.0,1.0,99,0.00,,---,0.01,VWS V13.01,2013-08-20 13:43:00,
2013-08-20 09:48:00,58.8,58.5,30.01,NNW,329,0.0,1.0,99,0.00,,---,0.01,VWS V13.01,2013-08-20 13:48:00,
2013-08-20 09:53:00,59.1,58.8,30.00,NNW,329,0.0,2.0,99,0.00,,---,0.01,VWS V13.01,2013-08-20 13:53:00,
2013-08-20 09:58:00,59.9,59.6,30.00,NNW,329,0.0,2.0,99,0.00,,---,0.01,VWS V13.01,2013-08-20 13:58:00,
2013-08-20 10:03:00,60.9,60.6,30.00,NNW,329,0.0,0.0,99,0.00,,---,0.01,VWS V13.01,2013-08-20 14:03:00,
2013-08-20 10:08:00,61.7,61.4,30.00,NNW,329,0.0,0.0,99,0.00,,---,0.01,VWS V13.01,2013-08-20 14:08:00,
2013-08-20 10:13:00,62.3,62.0,30.00,NNW,331,0.0,1.0,99,0.00,,---,0.01,VWS V13.01,2013-08-20 14:13:00,
2013-08-20 10:18:00,62.8,62.5,30.00,NNW,331,0.0,1.0,99,0.00,,---,0.01,VWS V13.01,2013-08-20 14:18:00,
2013-08-20 10:23:00,62.8,62.5,30.00,NNW,331,0.0,1.0,99,0.00,,---,0.01,VWS V13.01,2013-08-20 14:23:00,
2013-08-20 10:28:00,62.8,62.5,30.00,NNW,331,0.0,1.0,99,0.00,,---,0.01,VWS V13.01,2013-08-20 14:28:00,
2013-08-20 10:33:00,62.8,62.5,30.00,NNW,331,0.0,0.0,99,0.00,,---,0.01,VWS V13.01,2013-08-20 14:33:00,
2013-08-20 10:38:00,62.8,62.5,30.00,NNW,331,0.0,0.0,99,0.00,,---,0.01,VWS V13.01,2013-08-20 14:38:00,
2013-08-20 10:43:00,62.8,62.5,30.00,NNW,331,0.0,1.0,99,0.00,,---,0.01,VWS V13.01,2013-08-20 14:43:00,
2013-08-20 10:48:00,62.8,62.5,30.00,NNW,331,0.0,1.0,99,0.00,,---,0.01,VWS V13.01,2013-08-20 14:48:00,
2013-08-20 10:53:00,62.8,62.5,30.00,NNW,331,0.0,1.0,99,0.00,,---,0.01,VWS V13.01,2013-08-20 14:53:00,
2013-08-20 10:58:00,62.8,59.8,30.00,NNW,331,0.0,1.0,90,0.00,,---,0.01,VWS V13.01,2013-08-20 14:58:00,
2013-08-20 11:03:00,62.8,58.9,30.00,NNW,331,0.0,0.0,87,0.00,,---,0.01,VWS V13.01,2013-08-20 15:03:00,
2013-08-20 11:08:00,62.8,57.6,30.00,NNW,331,0.0,0.0,83,0.00,,---,0.01,VWS V13.01,2013-08-20 15:08:00,
2013-08-20 11:14:00,73.9,67.7,29.99,NNW,331,0.0,1.0,81,0.00,,---,0.01,VWS V13.01,2013-08-20 15:14:00,
2013-08-20 11:19:00,74.8,67.9,29.99,NNW,330,0.0,1.0,79,0.00,,---,0.01,VWS V13.01,2013-08-20 15:19:00,
2013-08-20 11:24:00,76.2,68.5,29.99,NNW,327,0.0,2.0,77,0.00,,---,0.01,VWS V13.01,2013-08-20 15:24:00,
2013-08-20 11:29:00,76.3,67.8,29.99,West,279,7.0,7.0,75,0.00,,---,0.01,VWS V13.01,2013-08-20 15:29:00,
2013-08-20 11:34:00,75.8,66.5,29.98,WNW,286,5.0,7.0,73,0.00,,---,0.01,VWS V13.01,2013-08-20 15:34:00,
2013-08-20 11:39:00,75.7,66.0,29.98,WNW,288,0.0,7.0,72,0.00,,---,0.01,VWS V13.01,2013-08-20 15:39:00,
2013-08-20 11:44:00,76.1,66.0,29.98,WNW,303,0.0,7.0,71,0.00,,---,0.01,VWS V13.01,2013-08-20 15:44:00,
2013-08-20 11:49:00,76.2,64.4,29.98,WNW,296,0.0,7.0,67,0.00,,---,0.01,VWS V13.01,2013-08-20 15:49:00,
2013-08-20 11:54:00,76.9,66.0,29.98,West,265,9.0,10.0,69,0.00,,---,0.01,VWS V13.01,2013-08-20 15:54:00,
2013-08-20 11:59:00,77.3,65.5,29.98,West,281,0.0,10.0,67,0.00,,---,0.01,VWS V13.01,2013-08-20 15:59:00,
2013-08-20 12:04:00,77.7,67.6,29.98,WSW,252,3.0,8.0,71,0.00,,---,0.01,VWS V13.01,2013-08-20 16:04:00,
2013-08-20 12:09:00,77.5,65.3,29.97,WSW,242,11.0,13.0,66,0.00,,---,0.01,VWS V13.01,2013-08-20 16:09:00,
2013-08-20 12:14:00,77.6,66.6,29.98,WNW,286,9.0,13.0,69,0.00,,---,0.01,VWS V13.01,2013-08-20 16:14:00,
2013-08-20 12:19:00,77.7,65.9,29.97,WSW,254,5.0,13.0,67,0.00,,---,0.01,VWS V13.01,2013-08-20 16:19:00,
2013-08-20 12:24:00,77.8,66.0,29.97,West,261,5.0,13.0,67,0.00,,---,0.01,VWS V13.01,2013-08-20 16:24:00,
2013-08-20 12:29:00,77.5,65.3,29.97,West,264,4.0,13.0,66,0.00,,---,0.01,VWS V13.01,2013-08-20 16:29:00,
2013-08-20 12:35:00,77.3,65.5,29.97,WNW,296,6.0,10.0,67,0.00,,---,0.01,VWS V13.01,2013-08-20 16:35:00,
2013-08-20 12:40:00,77.8,65.5,29.97,West,268,0.0,11.0,66,0.00,,---,0.01,VWS V13.01,2013-08-20 16:40:00,
2013-08-20 12:45:00,78.4,64.3,29.97,West,273,4.0,11.0,62,0.00,,---,0.01,VWS V13.01,2013-08-20 16:45:00,
2013-08-20 12:50:00,78.7,64.6,29.96,WSW,247,7.0,11.0,62,0.00,,---,0.01,VWS V13.01,2013-08-20 16:50:00,
2013-08-20 12:55:00,78.7,65.5,29.96,WSW,244,5.0,12.0,64,0.00,,---,0.01,VWS V13.01,2013-08-20 16:55:00,
2013-08-20 13:00:00,79.1,65.0,29.96,West,271,5.0,12.0,62,0.00,,---,0.01,VWS V13.01,2013-08-20 17:00:00,
2013-08-20 13:05:00,78.8,65.6,29.96,NW,305,5.0,8.0,64,0.00,,---,0.01,VWS V13.01,2013-08-20 17:05:00,
2013-08-20 13:10:00,79.3,64.7,29.96,NW,307,6.0,10.0,61,0.00,,---,0.01,VWS V13.01,2013-08-20 17:10:00,
2013-08-20 13:15:00,79.3,64.2,29.96,West,274,9.0,12.0,60,0.00,,---,0.01,VWS V13.01,2013-08-20 17:15:00,
2013-08-20 13:20:00,78.3,63.3,29.96,WNW,290,2.0,12.0,60,0.00,,---,0.01,VWS V13.01,2013-08-20 17:20:00,
2013-08-20 13:25:00,78.1,64.5,29.97,West,280,6.0,12.0,63,0.00,,---,0.01,VWS V13.01,2013-08-20 17:25:00,
2013-08-20 13:30:00,79.4,66.2,29.96,West,259,7.0,7.0,64,0.00,,---,0.01,VWS V13.01,2013-08-20 17:30:00,
2013-08-20 13:35:00,79.9,65.3,29.96,SW,229,5.0,10.0,61,0.00,,---,0.01,VWS V13.01,2013-08-20 17:35:00,
2013-08-20 13:40:00,80.3,64.7,29.96,West,265,6.0,12.0,59,0.00,,---,0.01,VWS V13.01,2013-08-20 17:40:00,
2013-08-20 13:45:00,80.2,64.1,29.96,West,264,9.0,12.0,58,0.00,,---,0.01,VWS V13.01,2013-08-20 17:45:00,
2013-08-20 13:50:00,80.1,63.5,29.95,WSW,251,6.0,12.0,57,0.00,,---,0.01,VWS V13.01,2013-08-20 17:50:00,
2013-08-20 13:55:00,80.5,64.4,29.95,WSW,254,4.0,12.0,58,0.00,,---,0.01,VWS V13.01,2013-08-20 17:55:00,
2013-08-20 14:00:00,80.7,63.6,29.95,WSW,247,8.0,9.0,56,0.00,,---,0.01,VWS V13.01,2013-08-20 18:00:00,
2013-08-20 14:05:00,80.2,63.6,29.95,WSW,248,8.0,13.0,57,0.00,,---,0.01,VWS V13.01,2013-08-20 18:05:00,
2013-08-20 14:10:00,80.1,63.0,29.95,WSW,257,1.0,13.0,56,0.00,,---,0.01,VWS V13.01,2013-08-20 18:10:00,
2013-08-20 14:15:00,80.4,63.3,29.95,West,269,6.0,13.0,56,0.00,,---,0.01,VWS V13.01,2013-08-20 18:15:00,
2013-08-20 14:20:00,80.8,64.2,29.94,West,279,5.0,13.0,57,0.00,,---,0.01,VWS V13.01,2013-08-20 18:20:00,
2013-08-20 14:26:00,81.3,63.6,29.94,WSW,253,7.0,13.0,55,0.00,,---,0.01,VWS V13.01,2013-08-20 18:26:00,
2013-08-20 14:31:00,81.0,63.3,29.95,WNW,286,4.0,8.0,55,0.00,,---,0.01,VWS V13.01,2013-08-20 18:31:00,
2013-08-20 14:36:00,80.7,64.1,29.94,WNW,302,0.0,8.0,57,0.00,,---,0.01,VWS V13.01,2013-08-20 18:36:00,
2013-08-20 14:41:00,80.0,63.9,29.94,WNW,286,5.0,11.0,58,0.00,,---,0.01,VWS V13.01,2013-08-20 18:41:00,
2013-08-20 14:46:00,79.4,64.3,29.94,WSW,238,5.0,11.0,60,0.00,,---,0.01,VWS V13.01,2013-08-20 18:46:00,
2013-08-20 14:51:00,80.1,63.5,29.94,WSW,238,7.0,11.0,57,0.00,,---,0.01,VWS V13.01,2013-08-20 18:51:00,
2013-08-20 14:56:00,80.8,63.1,29.94,West,275,4.0,11.0,55,0.00,,---,0.01,VWS V13.01,2013-08-20 18:56:00,
2013-08-20 15:01:00,81.0,62.3,29.93,West,265,9.0,10.0,53,0.00,,---,0.01,VWS V13.01,2013-08-20 19:01:00,
2013-08-20 15:06:00,81.2,63.5,29.93,WNW,283,5.0,10.0,55,0.00,,---,0.01,VWS V13.01,2013-08-20 19:06:00,
2013-08-20 15:11:00,81.1,63.4,29.93,WSW,253,11.0,11.0,55,0.00,,---,0.01,VWS V13.01,2013-08-20 19:11:00,
2013-08-20 15:16:00,81.1,63.9,29.93,WSW,242,8.0,11.0,56,0.00,,---,0.01,VWS V13.01,2013-08-20 19:16:00,
2013-08-20 15:21:00,81.4,66.7,29.93,West,259,6.0,12.0,61,0.00,,---,0.01,VWS V13.01,2013-08-20 19:21:00,
2013-08-20 15:26:00,81.7,65.0,29.93,West,260,4.0,12.0,57,0.00,,---,0.01,VWS V13.01,2013-08-20 19:26:00,
2013-08-20 15:31:00,81.5,64.8,29.93,WNW,294,7.0,7.0,57,0.00,,---,0.01,VWS V13.01,2013-08-20 19:31:00,
2013-08-20 15:36:00,81.4,63.2,29.93,WSW,244,7.0,9.0,54,0.00,,---,0.01,VWS V13.01,2013-08-20 19:36:00,
2013-08-20 15:41:00,81.0,64.3,29.92,WSW,257,6.0,9.0,57,0.00,,---,0.01,VWS V13.01,2013-08-20 19:41:00,
2013-08-20 15:46:00,80.8,64.2,29.92,West,260,4.0,9.0,57,0.00,,---,0.01,VWS V13.01,2013-08-20 19:46:00,
2013-08-20 15:51:00,81.1,64.9,29.92,West,260,2.0,9.0,58,0.00,,---,0.01,VWS V13.01,2013-08-20 19:51:00,
2013-08-20 15:56:00,81.3,65.1,29.92,WSW,245,8.0,12.0,58,0.00,,---,0.01,VWS V13.01,2013-08-20 19:56:00,
2013-08-20 16:01:00,81.5,64.3,29.92,WSW,254,10.0,10.0,56,0.00,,---,0.01,VWS V13.01,2013-08-20 20:01:00,
2013-08-20 16:06:00,81.4,64.7,29.92,West,261,6.0,10.0,57,0.00,,---,0.01,VWS V13.01,2013-08-20 20:06:00,
2013-08-20 16:11:00,81.1,63.4,29.92,West,263,5.0,10.0,55,0.00,,---,0.01,VWS V13.01,2013-08-20 20:11:00,
2013-08-20 16:16:00,79.6,64.0,29.92,SW,232,5.0,10.0,59,0.00,,---,0.01,VWS V13.01,2013-08-20 20:16:00,
2013-08-20 16:22:00,78.9,62.9,29.92,SW,236,4.0,10.0,58,0.00,,---,0.01,VWS V13.01,2013-08-20 20:22:00,
2013-08-20 16:27:00,78.9,63.8,29.91,SW,236,0.0,10.0,60,0.00,,---,0.01,VWS V13.01,2013-08-20 20:27:00,
2013-08-20 16:32:00,80.1,64.5,29.91,SW,236,0.0,5.0,59,0.00,,---,0.01,VWS V13.01,2013-08-20 20:32:00,
2013-08-20 16:37:00,81.3,64.6,29.91,WNW,286,8.0,9.0,57,0.00,,---,0.01,VWS V13.01,2013-08-20 20:37:00,
2013-08-20 16:42:00,80.9,64.2,29.91,WNW,284,3.0,9.0,57,0.00,,---,0.01,VWS V13.01,2013-08-20 20:42:00,
2013-08-20 16:47:00,80.1,65.0,29.91,WNW,284,3.0,9.0,60,0.00,,---,0.01,VWS V13.01,2013-08-20 20:47:00,
2013-08-20 16:52:00,80.6,64.0,29.91,NW,313,7.0,9.0,57,0.00,,---,0.01,VWS V13.01,2013-08-20 20:52:00,
2013-08-20 16:57:00,80.9,64.8,29.91,WSW,254,5.0,9.0,58,0.00,,---,0.01,VWS V13.01,2013-08-20 20:57:00,
2013-08-20 17:02:00,80.7,65.1,29.91,WNW,284,2.0,4.0,59,0.00,,---,0.01,VWS V13.01,2013-08-20 21:02:00,
2013-08-20 17:07:00,80.7,66.0,29.91,West,273,5.0,7.0,61,0.00,,---,0.01,VWS V13.01,2013-08-20 21:07:00,
2013-08-20 17:12:00,80.7,65.5,29.91,West,273,0.0,7.0,60,0.00,,---,0.01,VWS V13.01,2013-08-20 21:12:00,
2013-08-20 17:17:00,81.4,66.2,29.91,West,261,7.0,10.0,60,0.00,,---,0.01,VWS V13.01,2013-08-20 21:17:00,
2013-08-20 17:22:00,81.0,66.8,29.91,West,278,0.0,10.0,62,0.00,,---,0.01,VWS V13.01,2013-08-20 21:22:00,
2013-08-20 17:27:00,80.6,66.4,29.91,West,276,7.0,10.0,62,0.00,,---,0.01,VWS V13.01,2013-08-20 21:27:00,
2013-08-20 17:32:00,80.2,66.0,29.91,West,273,9.0,11.0,62,0.00,,---,0.01,VWS V13.01,2013-08-20 21:32:00,
2013-08-20 17:37:00,79.5,66.3,29.91,WNW,303,4.0,11.0,64,0.00,,---,0.01,VWS V13.01,2013-08-20 21:37:00,
2013-08-20 17:42:00,79.5,66.3,29.91,NW,305,0.0,11.0,64,0.00,,---,0.01,VWS V13.01,2013-08-20 21:42:00,
2013-08-20 17:47:00,79.3,65.2,29.91,WNW,303,2.0,11.0,62,0.00,,---,0.01,VWS V13.01,2013-08-20 21:47:00,
2013-08-20 17:52:00,79.1,65.4,29.91,WNW,302,8.0,11.0,63,0.00,,---,0.01,VWS V13.01,2013-08-20 21:52:00,
2013-08-20 17:57:00,78.9,64.8,29.91,West,281,2.0,11.0,62,0.00,,---,0.01,VWS V13.01,2013-08-20 21:57:00,
2013-08-20 18:02:00,78.7,64.6,29.91,WNW,300,0.0,8.0,62,0.00,,---,0.01,VWS V13.01,2013-08-20 22:02:00,
2013-08-20 18:07:00,78.6,64.5,29.92,WNW,292,4.0,8.0,62,0.00,,---,0.01,VWS V13.01,2013-08-20 22:07:00,
2013-08-20 18:12:00,78.6,65.0,29.91,WNW,292,0.0,8.0,63,0.00,,---,0.01,VWS V13.01,2013-08-20 22:12:00,
2013-08-20 18:18:00,78.7,64.6,29.92,WNW,291,1.0,8.0,62,0.00,,---,0.01,VWS V13.01,2013-08-20 22:18:00,
2013-08-20 18:23:00,78.7,64.1,29.91,WNW,290,3.0,8.0,61,0.00,,---,0.01,VWS V13.01,2013-08-20 22:23:00,
2013-08-20 18:28:00,78.7,66.0,29.92,WNW,290,1.0,8.0,65,0.00,,---,0.01,VWS V13.01,2013-08-20 22:28:00,
2013-08-20 18:33:00,78.5,64.4,29.91,WNW,290,5.0,5.0,62,0.00,,---,0.01,VWS V13.01,2013-08-20 22:33:00,
2013-08-20 18:38:00,77.9,63.8,29.91,West,281,0.0,7.0,62,0.00,,---,0.01,VWS V13.01,2013-08-20 22:38:00,
2013-08-20 18:43:00,77.3,65.9,29.91,West,281,0.0,7.0,68,0.00,,---,0.01,VWS V13.01,2013-08-20 22:43:00,
2013-08-20 18:48:00,76.7,64.5,29.92,West,281,0.0,7.0,66,0.00,,---,0.01,VWS V13.01,2013-08-20 22:48:00,
2013-08-20 18:53:00,76.6,64.0,29.91,West,281,1.0,7.0,65,0.00,,---,0.01,VWS V13.01,2013-08-20 22:53:00,
2013-08-20 18:58:00,76.0,65.1,29.91,West,281,0.0,7.0,69,0.00,,---,0.01,VWS V13.01,2013-08-20 22:58:00,
2013-08-20 19:03:00,75.3,65.3,29.92,West,280,0.0,0.0,71,0.00,,---,0.01,VWS V13.01,2013-08-20 23:03:00,
2013-08-20 19:08:00,74.7,65.1,29.91,West,281,0.0,0.0,72,0.00,,---,0.01,VWS V13.01,2013-08-20 23:08:00,
2013-08-20 19:13:00,73.9,64.3,29.92,West,280,0.0,1.0,72,0.00,,---,0.01,VWS V13.01,2013-08-20 23:13:00,
2013-08-20 19:18:00,73.3,64.5,29.92,West,281,0.0,1.0,74,0.00,,---,0.01,VWS V13.01,2013-08-20 23:18:00,
2013-08-20 19:23:00,73.0,65.0,29.92,West,280,0.0,1.0,76,0.00,,---,0.01,VWS V13.01,2013-08-20 23:23:00,
2013-08-20 19:28:00,72.9,65.3,29.92,West,281,0.0,1.0,77,0.00,,---,0.01,VWS V13.01,2013-08-20 23:28:00,
2013-08-20 19:33:00,72.6,65.0,29.92,West,280,0.0,0.0,77,0.00,,---,0.01,VWS V13.01,2013-08-20 23:33:00,
2013-08-20 19:38:00,72.1,64.5,29.92,West,281,0.0,0.0,77,0.00,,---,0.01,VWS V13.01,2013-08-20 23:38:00,
2013-08-20 19:43:00,71.3,64.5,29.92,West,281,0.0,0.0,79,0.00,,---,0.01,VWS V13.01,2013-08-20 23:43:00,
2013-08-20 19:48:00,70.6,64.1,29.92,West,281,0.0,0.0,80,0.00,,---,0.01,VWS V13.01,2013-08-20 23:48:00,
2013-08-20 19:53:00,69.9,64.2,29.92,West,280,0.0,0.0,82,0.00,,---,0.01,VWS V13.01,2013-08-20 23:53:00,
2013-08-20 19:58:00,69.5,63.8,29.92,West,281,0.0,0.0,82,0.00,,---,0.01,VWS V13.01,2013-08-20 23:58:00,
2013-08-20 20:03:00,69.1,63.7,29.93,West,281,0.0,0.0,83,0.00,,---,0.01,VWS V13.01,2013-08-21 00:03:00,
2013-08-20 20:09:00,68.6,63.6,29.93,West,280,0.0,0.0,84,0.00,,---,0.01,VWS V13.01,2013-08-21 00:09:00,
2013-08-20 20:14:00,68.2,63.5,29.93,West,281,0.0,0.0,85,0.00,,---,0.01,VWS V13.01,2013-08-21 00:14:00,
2013-08-20 20:19:00,67.7,63.0,29.93,West,280,0.0,0.0,85,0.00,,---,0.01,VWS V13.01,2013-08-21 00:19:00,
2013-08-20 20:24:00,67.0,62.3,29.94,West,281,0.0,0.0,85,0.00,,---,0.01,VWS V13.01,2013-08-21 00:24:00,
2013-08-20 20:29:00,66.5,62.5,29.94,West,280,0.0,0.0,87,0.00,,---,0.01,VWS V13.01,2013-08-21 00:29:00,
2013-08-20 20:34:00,66.0,62.0,29.94,West,281,0.0,0.0,87,0.00,,---,0.01,VWS V13.01,2013-08-21 00:34:00,
2013-08-20 20:39:00,65.5,61.9,29.94,West,281,0.0,0.0,88,0.00,,---,0.01,VWS V13.01,2013-08-21 00:39:00,
2013-08-20 20:44:00,65.2,61.9,29.94,West,281,0.0,0.0,89,0.00,,---,0.01,VWS V13.01,2013-08-21 00:44:00,
2013-08-20 20:50:00,64.8,61.5,29.94,West,280,0.0,0.0,89,0.00,,---,0.01,VWS V13.01,2013-08-21 00:50:00,
2013-08-20 20:55:00,64.3,61.0,29.94,West,281,0.0,0.0,89,0.00,,---,0.01,VWS V13.01,2013-08-21 00:55:00,
2013-08-20 21:00:00,64.0,61.0,29.95,West,281,0.0,0.0,90,0.00,,---,0.01,VWS V13.01,2013-08-21 01:00:00,
2013-08-20 21:05:00,63.6,60.6,29.95,West,281,0.0,0.0,90,0.00,,---,0.01,VWS V13.01,2013-08-21 01:05:00,
2013-08-20 21:10:00,63.2,60.2,29.95,West,281,0.0,0.0,90,0.00,,---,0.01,VWS V13.01,2013-08-21 01:10:00,
2013-08-20 21:15:00,62.9,59.9,29.95,West,281,0.0,0.0,90,0.00,,---,0.01,VWS V13.01,2013-08-21 01:15:00,
2013-08-20 21:20:00,62.7,60.0,29.95,West,280,0.0,0.0,91,0.00,,---,0.01,VWS V13.01,2013-08-21 01:20:00,
2013-08-20 21:25:00,62.3,59.6,29.96,West,281,0.0,0.0,91,0.00,,---,0.01,VWS V13.01,2013-08-21 01:25:00,
2013-08-20 21:30:00,61.9,59.2,29.96,West,281,0.0,0.0,91,0.00,,---,0.01,VWS V13.01,2013-08-21 01:30:00,
2013-08-20 21:35:00,61.4,59.1,29.96,West,281,0.0,0.0,92,0.00,,---,0.01,VWS V13.01,2013-08-21 01:35:00,
2013-08-20 21:40:00,61.1,58.8,29.96,West,281,0.0,0.0,92,0.00,,---,0.01,VWS V13.01,2013-08-21 01:40:00,
2013-08-20 21:46:00,61.0,59.0,29.96,West,281,0.0,0.0,93,0.00,,---,0.01,VWS V13.01,2013-08-21 01:46:00,
2013-08-20 21:51:00,60.8,58.8,29.97,West,281,0.0,0.0,93,0.00,,---,0.01,VWS V13.01,2013-08-21 01:51:00,
2013-08-20 21:56:00,60.5,58.5,29.97,West,280,0.0,0.0,93,0.00,,---,0.01,VWS V13.01,2013-08-21 01:56:00,
2013-08-20 22:01:00,60.3,58.6,29.97,West,281,0.0,0.0,94,0.00,,---,0.01,VWS V13.01,2013-08-21 02:01:00,
2013-08-20 22:06:00,60.1,58.4,29.97,West,280,0.0,0.0,94,0.00,,---,0.01,VWS V13.01,2013-08-21 02:06:00,
2013-08-20 22:11:00,60.0,58.3,29.97,West,281,0.0,0.0,94,0.00,,---,0.01,VWS V13.01,2013-08-21 02:11:00,
2013-08-20 22:16:00,59.8,58.1,29.98,West,281,0.0,0.0,94,0.00,,---,0.01,VWS V13.01,2013-08-21 02:16:00,
2013-08-20 22:21:00,59.7,58.0,29.98,West,281,0.0,0.0,94,0.00,,---,0.01,VWS V13.01,2013-08-21 02:21:00,
2013-08-20 22:26:00,59.5,58.1,29.98,West,281,0.0,0.0,95,0.00,,---,0.01,VWS V13.01,2013-08-21 02:26:00,
2013-08-20 22:31:00,59.1,57.4,29.98,West,281,0.0,0.0,94,0.00,,---,0.01,VWS V13.01,2013-08-21 02:31:00,
2013-08-20 22:36:00,59.0,57.6,29.98,West,281,0.0,0.0,95,0.00,,---,0.01,VWS V13.01,2013-08-21 02:36:00,
2013-08-20 22:41:00,59.0,57.6,29.98,West,280,0.0,0.0,95,0.00,,---,0.01,VWS V13.01,2013-08-21 02:41:00,
2013-08-20 22:46:00,58.9,58.3,29.98,West,281,0.0,0.0,98,0.00,,---,0.01,VWS V13.01,2013-08-21 02:46:00,
2013-08-20 22:51:00,58.4,57.0,29.98,West,280,0.0,0.0,95,0.00,,---,0.01,VWS V13.01,2013-08-21 02:51:00,
2013-08-20 22:56:00,58.0,56.6,29.98,West,281,0.0,0.0,95,0.00,,---,0.01,VWS V13.01,2013-08-21 02:56:00,
2013-08-20 23:01:00,57.8,56.4,29.98,West,280,0.0,0.0,95,0.00,,---,0.01,VWS V13.01,2013-08-21 03:01:00,
2013-08-20 23:06:00,57.7,56.3,29.98,West,281,0.0,0.0,95,0.00,,---,0.01,VWS V13.01,2013-08-21 03:06:00,
2013-08-20 23:11:00,57.8,56.7,29.98,West,281,0.0,0.0,96,0.00,,---,0.01,VWS V13.01,2013-08-21 03:11:00,
2013-08-20 23:16:00,57.4,56.0,29.98,West,281,0.0,0.0,95,0.00,,---,0.01,VWS V13.01,2013-08-21 03:16:00,
2013-08-20 23:21:00,57.1,56.0,29.99,West,280,0.0,0.0,96,0.00,,---,0.01,VWS V13.01,2013-08-21 03:21:00,
2013-08-20 23:26:00,56.8,55.7,29.98,West,281,0.0,0.0,96,0.00,,---,0.01,VWS V13.01,2013-08-21 03:26:00,
2013-08-20 23:31:00,56.6,55.5,29.98,West,280,0.0,0.0,96,0.00,,---,0.01,VWS V13.01,2013-08-21 03:31:00,
2013-08-20 23:37:00,56.5,55.4,29.98,West,281,0.0,0.0,96,0.00,,---,0.01,VWS V13.01,2013-08-21 03:37:00,
2013-08-20 23:42:00,56.6,55.5,29.98,West,280,0.0,0.0,96,0.00,,---,0.01,VWS V13.01,2013-08-21 03:42:00,
2013-08-20 23:47:00,56.4,55.3,29.99,West,281,0.0,0.0,96,0.00,,---,0.01,VWS V13.01,2013-08-21 03:47:00,
2013-08-20 23:52:00,56.0,54.9,29.99,West,281,0.0,0.0,96,0.00,,---,0.01,VWS V13.01,2013-08-21 03:52:00,
2013-08-20 23:57:00,55.7,54.6,29.99,West,280,0.0,0.0,96,0.00,,---,0.01,VWS V13.01,2013-08-21 03:57:00,